createdAt,value
2019-02-10T00:01:00.920Z,43.53
2019-02-10T00:03:31.398Z,42.93
2019-02-10T00:06:01.920Z,43.77
2019-02-10T00:08:32.392Z,43.67
2019-02-10T00:11:02.900Z,43.40
2019-02-10T00:13:34.946Z,43.63
2019-02-10T00:16:22.098Z,41.10
2019-02-10T00:18:52.607Z,42.23
2019-02-10T00:21:23.931Z,42.03
2019-02-10T00:23:54.395Z,42.70
2019-02-10T00:26:24.907Z,42.73
2019-02-10T00:28:55.380Z,41.23
2019-02-10T00:31:25.889Z,41.77
2019-02-10T00:33:56.356Z,41.87
2019-02-10T00:36:32.923Z,40.87
2019-02-10T00:38:59.229Z,40.63
2019-02-10T00:41:29.716Z,40.60
2019-02-10T00:44:01.870Z,41.50
2019-02-10T00:46:32.378Z,41.43
2019-02-10T00:49:02.909Z,40.13
2019-02-10T00:51:33.392Z,39.80
2019-02-10T00:54:03.890Z,41.73
2019-02-10T00:56:34.358Z,40.87
2019-02-10T00:59:04.858Z,42.33
2019-02-10T01:01:35.366Z,39.50
2019-02-10T01:04:05.982Z,40.53
2019-02-10T01:06:41.381Z,39.83
2019-02-10T01:09:08.638Z,41.83
2019-02-10T01:11:39.879Z,38.43
2019-02-10T01:14:10.462Z,41.37
2019-02-10T01:16:40.966Z,41.17
2019-02-10T01:19:12.219Z,40.60
2019-02-10T01:21:44.240Z,43.00
2019-02-10T01:24:14.710Z,42.53
2019-02-10T01:26:45.323Z,41.60
2019-02-10T01:29:15.965Z,42.27
2019-02-10T01:31:46.589Z,43.43
2019-02-10T01:34:17.054Z,41.93
2019-02-10T01:36:49.780Z,42.33
2019-02-10T01:39:21.831Z,42.20
2019-02-10T01:41:52.297Z,44.63
2019-02-10T01:44:22.787Z,43.10
2019-02-10T01:46:53.241Z,42.33
2019-02-10T01:49:23.747Z,43.63
2019-02-10T01:51:54.204Z,41.77
2019-02-10T01:54:24.712Z,41.70
2019-02-10T01:56:55.180Z,44.90
2019-02-10T01:59:25.670Z,42.97
2019-02-10T02:01:56.193Z,44.40
2019-02-10T02:04:26.662Z,44.47
2019-02-10T02:06:58.097Z,47.30
2019-02-10T02:09:28.814Z,46.97
2019-02-10T02:11:59.335Z,48.30
2019-02-10T02:14:29.833Z,45.03
2019-02-10T02:17:00.336Z,46.70
2019-02-10T02:19:30.835Z,47.50
2019-02-10T02:22:01.330Z,49.50
2019-02-10T02:24:31.797Z,47.57
2019-02-10T02:27:02.375Z,48.53
2019-02-10T02:29:32.849Z,48.87
2019-02-10T02:32:03.384Z,48.00
2019-02-10T02:34:33.866Z,48.07
2019-02-10T02:37:08.168Z,48.10
2019-02-10T02:39:36.647Z,48.57
2019-02-10T02:42:07.176Z,46.60
2019-02-10T02:44:37.670Z,48.70
2019-02-10T02:47:08.110Z,48.07
2019-02-10T02:49:38.614Z,46.63
2019-02-10T02:52:09.154Z,49.83
2019-02-10T02:54:39.658Z,47.67
2019-02-10T02:57:10.116Z,50.37
2019-02-10T02:59:40.617Z,48.60
2019-02-10T03:02:11.177Z,48.30
2019-02-10T03:04:41.711Z,47.63
2019-02-10T03:07:18.118Z,49.13
2019-02-10T03:09:44.340Z,47.17
2019-02-10T03:12:14.886Z,48.60
2019-02-10T03:14:45.352Z,49.77
2019-02-10T03:17:15.811Z,46.33
2019-02-10T03:19:46.333Z,45.80
2019-02-10T03:22:16.800Z,49.53
2019-02-10T03:24:47.345Z,48.50
2019-02-10T03:27:17.822Z,46.90
2019-02-10T03:29:48.280Z,48.10
2019-02-10T03:32:18.791Z,46.57
2019-02-10T03:34:49.243Z,47.63
2019-02-10T03:37:27.019Z,48.33
2019-02-10T03:39:51.912Z,48.00
2019-02-10T03:42:22.410Z,48.20
2019-02-10T03:44:52.886Z,47.93
2019-02-10T03:47:23.404Z,47.20
2019-02-10T03:49:53.884Z,46.47
2019-02-10T03:52:24.595Z,45.20
2019-02-10T03:54:55.163Z,41.23
2019-02-10T03:57:25.870Z,43.13
2019-02-10T03:59:56.447Z,44.30
2019-02-10T04:02:27.059Z,44.93
2019-02-10T04:04:57.557Z,40.80
2019-02-10T04:07:35.849Z,44.00
2019-02-10T04:10:00.406Z,43.37
2019-02-10T04:12:30.966Z,46.37
2019-02-10T04:15:01.487Z,48.90
2019-02-10T04:17:31.994Z,44.93
2019-02-10T04:20:02.515Z,43.33
2019-02-10T04:22:33.046Z,45.90
2019-02-10T04:25:03.546Z,41.57
2019-02-10T04:27:34.027Z,43.60
2019-02-10T04:30:04.618Z,44.40
2019-02-10T04:32:35.127Z,43.27
2019-02-10T04:35:05.881Z,43.00
2019-02-10T04:37:45.071Z,41.90
2019-02-10T04:40:08.650Z,45.37
2019-02-10T04:42:39.147Z,43.27
2019-02-10T04:45:09.816Z,45.30
2019-02-10T04:47:40.279Z,42.97
2019-02-10T04:50:10.765Z,43.07
2019-02-10T04:52:41.260Z,44.27
2019-02-10T04:55:11.773Z,45.50
2019-02-10T04:57:42.254Z,44.20
2019-02-10T05:00:12.716Z,43.30
2019-02-10T05:02:43.219Z,43.13
2019-02-10T05:05:13.815Z,43.00
2019-02-10T05:07:44.268Z,42.87
2019-02-10T05:10:14.731Z,43.87
2019-02-10T05:12:45.230Z,46.23
2019-02-10T05:15:15.834Z,41.23
2019-02-10T05:17:46.288Z,44.77
2019-02-10T05:20:16.785Z,42.87
2019-02-10T05:22:47.243Z,40.93
2019-02-10T05:25:17.713Z,41.30
2019-02-10T05:27:48.217Z,43.57
2019-02-10T05:30:18.689Z,42.50
2019-02-10T05:32:49.192Z,45.37
2019-02-10T05:35:19.676Z,44.50
2019-02-10T05:37:50.170Z,43.70
2019-02-10T05:40:20.669Z,42.93
2019-02-10T05:42:51.175Z,43.13
2019-02-10T05:45:21.662Z,41.87
2019-02-10T05:47:52.174Z,43.90
2019-02-10T05:50:22.637Z,43.23
2019-02-10T05:52:53.146Z,42.73
2019-02-10T05:55:23.611Z,42.83
2019-02-10T05:57:54.115Z,41.77
2019-02-10T06:00:24.898Z,43.13
2019-02-10T06:02:55.375Z,44.10
2019-02-10T06:05:27.852Z,43.57
2019-02-10T06:07:58.353Z,44.40
2019-02-10T06:10:28.806Z,42.97
2019-02-10T06:12:59.318Z,44.33
2019-02-10T06:15:29.772Z,48.00
2019-02-10T06:18:00.274Z,46.70
2019-02-10T06:20:30.790Z,48.37
2019-02-10T06:23:01.253Z,45.90
2019-02-10T06:25:31.795Z,45.40
2019-02-10T06:28:02.302Z,47.17
2019-02-10T06:30:32.827Z,46.73
2019-02-10T06:33:03.349Z,48.10
2019-02-10T06:35:33.814Z,51.80
2019-02-10T06:38:04.329Z,49.30
2019-02-10T06:40:34.788Z,50.33
2019-02-10T06:43:05.253Z,51.00
2019-02-10T06:45:35.785Z,50.60
2019-02-10T06:48:06.254Z,49.77
2019-02-10T06:50:36.743Z,50.73
2019-02-10T06:53:07.219Z,48.57
2019-02-10T06:55:37.727Z,48.80
2019-02-10T06:58:08.203Z,48.40
2019-02-10T07:00:46.407Z,46.60
2019-02-10T07:03:43.044Z,47.37
2019-02-10T07:06:13.845Z,48.67
2019-02-10T07:08:44.308Z,51.23
2019-02-10T07:11:14.828Z,50.20
2019-02-10T07:13:47.647Z,52.80
2019-02-10T07:16:48.557Z,51.70
2019-02-10T07:20:07.706Z,50.27
2019-02-10T07:23:22.361Z,50.87
2019-02-10T07:26:00.447Z,49.17
2019-02-10T07:29:03.729Z,51.90
2019-02-10T07:31:39.934Z,46.30
2019-02-10T07:34:48.478Z,44.00
2019-02-10T07:37:56.835Z,47.10
2019-02-10T07:40:55.221Z,49.63
2019-02-10T07:43:32.935Z,47.20
2019-02-10T07:46:44.064Z,46.00
2019-02-10T07:49:58.371Z,44.23
2019-02-10T07:52:45.826Z,41.00
2019-02-10T07:56:05.895Z,40.13
2019-02-10T07:59:15.778Z,40.03
2019-02-10T08:02:06.461Z,40.67
2019-02-10T08:05:35.609Z,41.47
2019-02-10T08:08:46.863Z,42.47
2019-02-10T08:11:40.112Z,42.57
2019-02-10T08:14:42.436Z,42.60
2019-02-10T08:17:35.628Z,40.50
2019-02-10T08:20:48.819Z,40.63
2019-02-10T08:23:43.990Z,44.07
2019-02-10T08:26:59.010Z,41.93
2019-02-10T08:30:12.880Z,44.63
2019-02-10T08:33:28.619Z,45.13
2019-02-10T08:36:46.101Z,45.73
2019-02-10T08:39:49.506Z,47.13
2019-02-10T08:43:15.773Z,48.73
2019-02-10T08:46:19.854Z,49.10
2019-02-10T08:49:18.967Z,48.77
2019-02-10T08:52:23.263Z,48.17
2019-02-10T08:54:53.836Z,48.53
2019-02-10T08:57:24.298Z,46.87
2019-02-10T08:59:54.797Z,47.53
2019-02-10T09:02:25.261Z,48.40
2019-02-10T09:04:55.730Z,47.90
2019-02-10T09:07:26.237Z,47.37
2019-02-10T09:09:56.710Z,48.47
2019-02-10T09:12:27.177Z,53.57
2019-02-10T09:14:57.705Z,50.20
2019-02-10T09:17:28.171Z,49.03
2019-02-10T09:19:58.677Z,49.53
2019-02-10T09:22:29.205Z,52.00
2019-02-10T09:24:59.706Z,50.17
2019-02-10T09:27:30.153Z,50.03
2019-02-10T09:30:00.662Z,53.03
2019-02-10T09:32:31.152Z,51.47
2019-02-10T09:35:01.616Z,49.93
2019-02-10T09:37:32.073Z,52.43
2019-02-10T09:40:02.577Z,49.30
2019-02-10T09:42:33.034Z,49.83
2019-02-10T09:45:03.645Z,47.20
2019-02-10T09:47:34.114Z,47.37
2019-02-10T09:50:04.840Z,48.47
2019-02-10T09:52:35.350Z,48.50
2019-02-10T09:55:06.064Z,45.63
2019-02-10T09:57:36.579Z,46.20
2019-02-10T10:00:08.816Z,45.97
2019-02-10T10:02:39.334Z,44.37
2019-02-10T10:05:10.515Z,43.20
2019-02-10T10:07:40.984Z,41.33
2019-02-10T10:10:12.690Z,38.77
2019-02-10T10:12:43.163Z,40.93
2019-02-10T10:15:15.062Z,43.70
2019-02-10T10:17:45.530Z,39.43
2019-02-10T10:20:17.054Z,37.93
2019-02-10T10:22:47.554Z,34.77
2019-02-10T10:25:18.005Z,34.53
2019-02-10T10:27:48.494Z,35.23
2019-02-10T10:30:19.020Z,33.50
2019-02-10T10:32:49.525Z,35.43
2019-02-10T10:35:20.000Z,35.83
2019-02-10T10:37:50.453Z,36.83
2019-02-10T10:40:20.941Z,35.13
2019-02-10T10:42:51.397Z,35.40
2019-02-10T10:45:22.000Z,34.33
2019-02-10T10:47:52.470Z,38.97
2019-02-10T10:50:22.982Z,39.53
2019-02-10T10:52:53.454Z,37.60
2019-02-10T10:55:23.931Z,37.33
2019-02-10T10:57:54.538Z,40.03
2019-02-10T11:00:25.004Z,38.97
2019-02-10T11:02:55.510Z,38.33
2019-02-10T11:05:25.985Z,38.20
2019-02-10T11:07:56.482Z,35.20
2019-02-10T11:10:28.175Z,35.67
2019-02-10T11:12:58.735Z,36.73
2019-02-10T11:15:29.299Z,37.60
2019-02-10T11:17:59.766Z,37.83
2019-02-10T11:20:30.242Z,37.90
2019-02-10T11:23:00.744Z,35.50
2019-02-10T11:25:31.251Z,35.87
2019-02-10T11:28:01.709Z,37.37
2019-02-10T11:30:32.291Z,36.93
2019-02-10T11:33:02.802Z,35.90
2019-02-10T11:35:33.261Z,35.90
2019-02-10T11:38:03.723Z,34.27
2019-02-10T11:40:34.230Z,34.13
2019-02-10T11:43:04.791Z,33.77
2019-02-10T11:45:35.402Z,34.30
2019-02-10T11:48:07.580Z,33.13
2019-02-10T11:50:38.143Z,32.13
2019-02-10T11:53:08.639Z,33.10
2019-02-10T11:55:39.137Z,32.17
2019-02-10T11:58:09.633Z,30.27
2019-02-10T12:00:40.251Z,32.47
2019-02-10T12:03:10.736Z,35.13
2019-02-10T12:05:41.263Z,32.50
2019-02-10T12:08:11.765Z,32.23
2019-02-10T12:10:42.279Z,31.80
2019-02-10T12:13:12.747Z,30.73
2019-02-10T12:15:43.219Z,30.77
2019-02-10T12:18:13.774Z,31.20
2019-02-10T12:20:44.281Z,30.40
2019-02-10T12:23:14.751Z,31.77
2019-02-10T12:25:45.349Z,30.40
2019-02-10T12:28:15.813Z,33.27
2019-02-10T12:30:46.321Z,29.80
2019-02-10T12:33:16.804Z,31.30
2019-02-10T12:35:47.302Z,29.67
2019-02-10T12:38:17.772Z,30.80
2019-02-10T12:40:48.446Z,32.57
2019-02-10T12:43:18.921Z,31.20
2019-02-10T12:45:49.429Z,31.30
2019-02-10T12:48:20.881Z,31.03
2019-02-10T12:50:51.397Z,31.10
2019-02-10T12:53:21.857Z,29.40
2019-02-10T12:55:52.372Z,29.17
2019-02-10T12:58:22.830Z,28.83
2019-02-10T13:00:53.327Z,29.93
2019-02-10T13:03:23.832Z,32.00
2019-02-10T13:05:54.363Z,32.57
2019-02-10T13:08:24.891Z,30.47
2019-02-10T13:10:55.407Z,29.53
2019-02-10T13:13:25.888Z,32.00
2019-02-10T13:15:56.402Z,33.43
2019-02-10T13:18:26.877Z,34.80
2019-02-10T13:20:57.379Z,36.73
2019-02-10T13:23:27.850Z,36.87
2019-02-10T13:25:58.350Z,35.03
2019-02-10T13:28:28.810Z,35.97
2019-02-10T13:30:59.324Z,37.33
2019-02-10T13:33:29.835Z,37.20
2019-02-10T13:36:00.310Z,39.03
2019-02-10T13:38:30.814Z,38.73
2019-02-10T13:41:01.326Z,39.03
2019-02-10T13:43:33.626Z,39.13
2019-02-10T13:46:03.995Z,38.93
2019-02-10T13:48:34.504Z,36.87
2019-02-10T13:51:04.979Z,36.67
2019-02-10T13:53:35.499Z,35.20
2019-02-10T13:56:05.964Z,35.93
2019-02-10T13:58:36.428Z,34.47
2019-02-10T14:01:06.939Z,33.03
2019-02-10T14:03:37.408Z,32.37
2019-02-10T14:06:07.874Z,31.93
2019-02-10T14:08:38.337Z,30.47
2019-02-10T14:11:08.846Z,31.10
2019-02-10T14:13:39.327Z,29.43
2019-02-10T14:16:09.833Z,29.30
2019-02-10T14:18:40.311Z,29.93
2019-02-10T14:21:10.821Z,30.27
2019-02-10T14:23:41.285Z,30.77
2019-02-10T14:26:11.884Z,29.83
2019-02-10T14:28:42.349Z,30.80
2019-02-10T14:31:12.805Z,32.27
2019-02-10T14:33:43.275Z,32.27
2019-02-10T14:36:13.788Z,30.70
2019-02-10T14:38:44.264Z,32.33
2019-02-10T14:41:14.774Z,32.63
2019-02-10T14:43:45.282Z,31.47
2019-02-10T14:46:15.757Z,31.37
2019-02-10T14:48:46.266Z,31.40
2019-02-10T14:51:16.748Z,32.80
2019-02-10T14:53:47.253Z,31.47
2019-02-10T14:56:17.999Z,31.07
2019-02-10T14:58:48.515Z,31.83
2019-02-10T15:01:18.979Z,30.67
2019-02-10T15:03:49.486Z,31.47
2019-02-10T15:06:19.999Z,32.10
2019-02-10T15:08:50.541Z,30.83
2019-02-10T15:11:20.998Z,31.57
2019-02-10T15:13:51.501Z,31.00
2019-02-10T15:16:22.009Z,29.70
2019-02-10T15:18:52.486Z,29.07
2019-02-10T15:21:23.000Z,29.13
2019-02-10T15:23:53.486Z,28.47
2019-02-10T15:26:24.006Z,29.07
2019-02-10T15:28:54.473Z,27.87
2019-02-10T15:31:24.970Z,29.80
2019-02-10T15:33:55.476Z,28.73
2019-02-10T15:36:25.941Z,29.07
2019-02-10T15:38:56.461Z,28.37
2019-02-10T15:41:26.921Z,31.13
2019-02-10T15:43:57.384Z,34.90
2019-02-10T15:46:27.896Z,37.47
2019-02-10T15:48:58.352Z,37.63
2019-02-10T15:51:36.892Z,33.63
2019-02-10T15:54:01.146Z,30.30
2019-02-10T15:56:31.645Z,30.30
2019-02-10T15:59:02.173Z,29.53
2019-02-10T16:01:32.723Z,29.60
2019-02-10T16:04:03.232Z,29.03
2019-02-10T16:06:33.782Z,28.43
2019-02-10T16:09:04.843Z,29.60
2019-02-10T16:11:35.311Z,29.43
2019-02-10T16:14:05.883Z,29.80
2019-02-10T16:16:36.386Z,30.53
2019-02-10T16:19:06.883Z,52.77
2019-02-10T16:21:37.342Z,41.53
2019-02-10T16:24:07.841Z,44.87
2019-02-10T16:26:38.310Z,38.40
2019-02-10T16:29:08.817Z,33.27
2019-02-10T16:31:39.314Z,33.77
2019-02-10T16:34:09.769Z,31.93
2019-02-10T16:36:40.222Z,33.33
2019-02-10T16:39:14.106Z,29.00
2019-02-10T16:41:44.562Z,30.87
2019-02-10T16:44:15.062Z,31.80
2019-02-10T16:46:45.524Z,33.17
2019-02-10T16:49:16.017Z,31.60
2019-02-10T16:51:46.515Z,31.33
2019-02-10T16:54:17.031Z,27.53
2019-02-10T16:56:47.511Z,28.20
2019-02-10T16:59:17.983Z,29.00
2019-02-10T17:01:48.508Z,31.47
2019-02-10T17:04:18.984Z,30.23
2019-02-10T17:06:49.462Z,30.50
2019-02-10T17:09:19.967Z,29.13
2019-02-10T17:11:50.479Z,29.90
2019-02-10T17:14:20.936Z,30.07
2019-02-10T17:16:51.402Z,30.20
2019-02-10T17:19:21.966Z,29.10
2019-02-10T17:21:52.421Z,31.10
2019-02-10T17:24:22.890Z,30.50
2019-02-10T17:26:53.386Z,29.07
2019-02-10T17:29:23.852Z,31.03
2019-02-10T17:31:54.367Z,31.90
2019-02-10T17:34:24.833Z,29.67
2019-02-10T17:36:55.340Z,33.27
2019-02-10T17:39:26.061Z,30.60
2019-02-10T17:41:56.505Z,33.03
2019-02-10T17:44:27.039Z,31.40
2019-02-10T17:46:57.489Z,29.87
2019-02-10T17:49:27.996Z,31.57
2019-02-10T17:51:58.491Z,30.50
2019-02-10T17:54:29.013Z,30.57
2019-02-10T17:56:59.481Z,31.77
2019-02-10T17:59:29.942Z,31.80
2019-02-10T18:02:00.419Z,32.37
2019-02-10T18:04:37.356Z,32.20
2019-02-10T18:07:03.209Z,32.07
2019-02-10T18:09:33.682Z,32.30
2019-02-10T18:12:04.195Z,31.77
2019-02-10T18:14:59.571Z,32.07
2019-02-10T18:17:41.785Z,32.07
2019-02-10T18:20:34.166Z,31.40
2019-02-10T18:23:26.529Z,32.53
2019-02-10T18:26:14.300Z,30.77
2019-02-10T18:29:04.130Z,33.43
2019-02-10T18:31:52.090Z,30.80
2019-02-10T18:34:35.565Z,32.60
2019-02-10T18:37:24.878Z,34.23
2019-02-10T18:40:23.428Z,32.87
2019-02-10T18:43:08.183Z,34.90
2019-02-10T18:46:15.562Z,33.40
2019-02-10T18:49:09.353Z,38.20
2019-02-10T18:51:57.117Z,38.67
2019-02-10T18:54:46.724Z,41.43
2019-02-10T18:57:44.970Z,39.77
2019-02-10T19:00:34.418Z,38.60
2019-02-10T19:03:41.960Z,40.93
2019-02-10T19:06:24.485Z,38.63
2019-02-10T19:09:16.677Z,37.73
2019-02-10T19:11:57.886Z,39.63
2019-02-10T19:14:45.671Z,38.80
2019-02-10T19:17:41.063Z,40.77
2019-02-10T19:20:28.521Z,43.10
2019-02-10T19:23:20.654Z,45.30
2019-02-10T19:26:15.779Z,47.37
2019-02-10T19:29:17.272Z,78.07
2019-02-10T19:32:05.073Z,49.83
2019-02-10T19:34:52.235Z,80.83
2019-02-10T19:37:41.590Z,138.73
2019-02-10T19:40:29.516Z,111.97
2019-02-10T19:43:21.767Z,105.77
2019-02-10T19:46:09.591Z,97.37
2019-02-10T19:49:01.788Z,91.20
2019-02-10T19:51:49.636Z,84.20
2019-02-10T19:54:47.845Z,85.17
2019-02-10T19:57:27.726Z,89.47
2019-02-10T20:00:22.862Z,92.23
2019-02-10T20:03:03.894Z,96.00
2019-02-10T20:05:59.430Z,96.60
2019-02-10T20:08:48.742Z,117.27
2019-02-10T20:11:44.055Z,102.67
2019-02-10T20:14:45.462Z,102.70
2019-02-10T20:17:41.250Z,102.50
2019-02-10T20:20:35.586Z,99.60
2019-02-10T20:23:21.831Z,96.07
2019-02-10T20:26:05.543Z,82.50
2019-02-10T20:28:53.357Z,72.40
2019-02-10T20:31:57.934Z,67.10
2019-02-10T20:35:02.387Z,57.80
2019-02-10T20:37:44.071Z,59.20
2019-02-10T20:40:42.295Z,59.80
2019-02-10T20:43:25.900Z,57.83
2019-02-10T20:46:27.491Z,57.67
2019-02-10T20:49:16.933Z,59.93
2019-02-10T20:52:15.113Z,67.53
2019-02-10T20:55:07.263Z,65.50
2019-02-10T20:57:47.324Z,68.80
2019-02-10T21:00:35.572Z,66.17
2019-02-10T21:03:31.094Z,64.13
2019-02-10T21:06:10.304Z,68.37
2019-02-10T21:08:51.894Z,63.73
2019-02-10T21:11:47.304Z,63.97
2019-02-10T21:14:28.915Z,61.30
2019-02-10T21:17:09.042Z,64.10
2019-02-10T21:19:57.178Z,64.27
2019-02-10T21:22:52.133Z,63.20
2019-02-10T21:25:30.478Z,63.63
2019-02-10T21:28:09.710Z,63.20
2019-02-10T21:30:59.073Z,61.37
2019-02-10T21:33:47.020Z,61.73
2019-02-10T21:36:26.765Z,59.50
2019-02-10T21:39:21.941Z,60.30
2019-02-10T21:42:28.777Z,61.10
2019-02-10T21:45:13.001Z,61.17
2019-02-10T21:48:11.440Z,61.80
2019-02-10T21:50:41.902Z,61.60
2019-02-10T21:53:12.372Z,59.40
2019-02-10T21:55:42.866Z,61.70
2019-02-10T21:58:13.360Z,60.57
2019-02-10T22:00:43.859Z,65.10
2019-02-10T22:03:14.315Z,65.50
2019-02-10T22:05:44.816Z,64.53
2019-02-10T22:08:15.316Z,63.13
2019-02-10T22:10:45.818Z,62.57
2019-02-10T22:13:16.271Z,64.03
2019-02-10T22:15:46.768Z,68.40
2019-02-10T22:18:17.308Z,66.47
2019-02-10T22:20:47.764Z,67.27
2019-02-10T22:23:18.259Z,67.50
2019-02-10T22:25:48.721Z,66.23
2019-02-10T22:28:19.210Z,66.07
2019-02-10T22:30:49.664Z,64.80
2019-02-10T22:33:20.162Z,71.40
2019-02-10T22:35:50.607Z,70.73
2019-02-10T22:38:21.071Z,69.87
2019-02-10T22:40:51.568Z,74.00
2019-02-10T22:43:22.064Z,77.03
2019-02-10T22:45:54.078Z,77.30
2019-02-10T22:48:24.565Z,75.67
2019-02-10T22:50:55.071Z,74.80
2019-02-10T22:53:25.536Z,73.60
2019-02-10T22:55:56.035Z,77.30
2019-02-10T22:58:26.516Z,76.50
2019-02-10T23:01:05.706Z,75.13
2019-02-10T23:03:36.252Z,75.87
2019-02-10T23:06:06.940Z,74.10
2019-02-10T23:08:37.424Z,75.83
2019-02-10T23:11:07.882Z,79.30
2019-02-10T23:13:38.344Z,81.30
2019-02-10T23:16:08.801Z,84.97
2019-02-10T23:18:39.305Z,80.67
2019-02-10T23:21:09.770Z,77.23
2019-02-10T23:23:40.265Z,78.40
2019-02-10T23:26:10.716Z,75.40
2019-02-10T23:28:41.201Z,70.20
2019-02-10T23:31:11.706Z,72.77
2019-02-10T23:33:42.165Z,77.53
2019-02-10T23:36:12.637Z,75.47
2019-02-10T23:38:43.096Z,72.73
2019-02-10T23:41:13.615Z,67.23
2019-02-10T23:43:44.080Z,64.57
2019-02-10T23:46:14.538Z,63.80
2019-02-10T23:48:45.042Z,61.93
2019-02-10T23:51:15.488Z,55.33
2019-02-10T23:53:46.021Z,58.07
2019-02-10T23:56:16.523Z,63.43
2019-02-10T23:58:46.983Z,67.03
